createdAt,value
2018-04-18T00:04:26.322Z,12.80
2018-04-18T00:09:29.693Z,12.45
2018-04-18T00:14:32.986Z,14.23
2018-04-18T00:19:36.983Z,14.23
2018-04-18T00:24:40.290Z,14.07
2018-04-18T00:29:43.605Z,14.68
2018-04-18T00:34:47.844Z,13.82
2018-04-18T00:39:52.642Z,15.40
2018-04-18T00:44:55.905Z,12.80
2018-04-18T00:49:59.812Z,13.80
2018-04-18T00:55:03.336Z,12.10
2018-04-18T01:00:06.356Z,13.77
2018-04-18T01:05:09.567Z,14.25
2018-04-18T01:10:13.642Z,14.47
2018-04-18T01:15:17.021Z,14.50
2018-04-18T01:20:20.410Z,17.30
2018-04-18T01:25:24.115Z,13.75
2018-04-18T01:30:28.180Z,12.68
2018-04-18T01:35:31.519Z,14.00
2018-04-18T01:40:35.302Z,17.37
2018-04-18T01:45:38.679Z,17.80
2018-04-18T01:50:43.337Z,18.27
2018-04-18T01:55:47.110Z,19.43
2018-04-18T02:00:50.553Z,13.77
2018-04-18T02:05:53.595Z,20.05
2018-04-18T02:10:56.803Z,17.73
2018-04-18T02:16:00.187Z,20.85
2018-04-18T02:21:03.542Z,15.90
2018-04-18T02:26:06.761Z,13.77
2018-04-18T03:05:04.618Z,20.98
2018-04-18T03:10:10.689Z,17.52
2018-04-18T03:15:13.918Z,15.57
2018-04-18T03:20:17.468Z,16.40
2018-04-18T03:25:20.703Z,15.63
2018-04-18T03:30:24.307Z,16.00
2018-04-18T03:35:27.768Z,14.13
2018-04-18T03:40:31.050Z,14.13
2018-04-18T03:45:35.012Z,16.23
2018-04-18T03:50:38.857Z,17.60
2018-04-18T03:56:05.556Z,16.40
2018-04-18T04:01:09.378Z,17.95
2018-04-18T04:06:13.321Z,23.40
2018-04-18T04:11:16.650Z,14.30
2018-04-18T04:16:32.691Z,13.80
2018-04-18T04:21:47.679Z,13.93
2018-04-18T04:26:50.921Z,18.30
2018-04-18T04:31:54.065Z,15.65
2018-04-18T04:36:57.345Z,12.67
2018-04-18T04:42:00.796Z,18.00
2018-04-18T04:47:05.531Z,16.15
2018-04-18T04:52:09.179Z,13.90
2018-04-18T04:57:13.074Z,17.53
2018-04-18T05:02:16.328Z,15.53
2018-04-18T05:07:19.537Z,13.83
2018-04-18T05:12:24.065Z,17.55
2018-04-18T05:17:27.510Z,20.03
2018-04-18T05:22:30.823Z,18.27
2018-04-18T05:27:34.212Z,21.58
2018-04-18T05:32:37.784Z,16.37
2018-04-18T05:37:42.229Z,15.10
2018-04-18T05:42:47.776Z,22.83
2018-04-18T05:47:54.245Z,21.40
2018-04-18T05:52:58.854Z,17.43
2018-04-18T05:58:02.110Z,23.50
2018-04-18T06:03:05.369Z,24.10
2018-04-18T06:08:09.567Z,23.57
2018-04-18T06:13:14.443Z,20.88
2018-04-18T06:18:17.893Z,27.20
2018-04-18T06:23:21.439Z,17.93
2018-04-18T06:28:25.669Z,21.17
2018-04-18T06:33:29.316Z,23.70
2018-04-18T06:38:32.824Z,21.00
2018-04-18T06:43:36.191Z,24.12
2018-04-18T06:48:39.610Z,19.70
2018-04-18T06:53:43.574Z,23.05
2018-04-18T06:58:47.559Z,24.50
2018-04-18T07:03:52.253Z,20.37
2018-04-18T07:08:55.714Z,23.33
2018-04-18T07:13:59.895Z,23.30
2018-04-18T07:19:03.883Z,19.13
2018-04-18T07:24:08.333Z,21.50
2018-04-18T07:29:11.638Z,19.75
2018-04-18T07:34:16.195Z,24.27
2018-04-18T07:39:22.047Z,18.77
2018-04-18T07:44:28.302Z,18.63
2018-04-18T07:49:37.167Z,25.73
2018-04-18T07:54:40.598Z,14.90
2018-04-18T07:59:45.360Z,14.80
2018-04-18T08:04:50.698Z,18.30
2018-04-18T08:09:54.817Z,15.57
2018-04-18T08:14:58.661Z,13.48
2018-04-18T08:20:02.341Z,11.37
2018-04-18T08:25:07.018Z,10.97
2018-04-18T08:30:12.392Z,9.83
2018-04-18T08:35:17.235Z,13.70
2018-04-18T08:40:27.730Z,12.07
2018-04-18T08:45:34.436Z,13.93
2018-04-18T08:50:39.987Z,11.52
2018-04-18T08:55:42.964Z,13.15
2018-04-18T09:00:48.303Z,14.35
2018-04-18T09:06:03.238Z,15.73
2018-04-18T09:11:14.066Z,10.90
2018-04-18T09:21:54.346Z,12.63
2018-04-18T09:27:08.845Z,17.25
2018-04-18T09:32:16.595Z,11.57
2018-04-18T09:37:24.145Z,15.93
2018-04-18T09:42:28.656Z,13.43
2018-04-18T09:47:55.525Z,14.60
2018-04-18T09:52:59.896Z,15.38
2018-04-18T09:58:03.915Z,12.47
2018-04-18T10:03:08.541Z,14.43
2018-04-18T10:08:13.122Z,14.30
2018-04-18T10:13:16.574Z,15.68
2018-04-18T10:18:23.621Z,11.73
2018-04-18T10:23:27.025Z,14.83
2018-04-18T10:28:31.229Z,16.17
2018-04-18T10:33:34.677Z,15.63
2018-04-18T10:38:38.135Z,14.20
2018-04-18T10:43:41.632Z,13.93
2018-04-18T10:53:56.383Z,13.62
2018-04-18T10:58:59.885Z,14.68
2018-04-18T11:04:04.010Z,14.93
2018-04-18T11:09:08.724Z,15.93
2018-04-18T11:14:15.289Z,15.45
2018-04-18T11:19:19.102Z,16.23
2018-04-18T11:24:23.492Z,12.50
2018-04-18T11:29:26.784Z,18.27
2018-04-18T11:34:30.129Z,15.10
2018-04-18T11:39:34.790Z,16.92
2018-04-18T11:44:40.555Z,18.23
2018-04-18T11:49:44.099Z,17.15
2018-04-18T11:54:47.568Z,16.67
2018-04-18T12:07:52.005Z,18.30
2018-04-18T12:18:08.118Z,19.10
2018-04-18T12:23:11.462Z,15.73
2018-04-18T12:28:17.403Z,20.48
2018-04-18T12:38:55.500Z,20.50
2018-04-18T12:44:03.088Z,20.17
2018-04-18T12:49:11.233Z,22.23
2018-04-18T12:54:30.003Z,20.77
2018-04-18T13:04:52.485Z,18.87
2018-04-18T13:09:57.080Z,23.08
2018-04-18T13:15:02.612Z,16.00
2018-04-18T13:20:12.898Z,18.05
2018-04-18T13:25:23.530Z,22.15
2018-04-18T13:30:31.586Z,22.17
2018-04-18T13:35:36.330Z,22.95
2018-04-18T13:40:40.051Z,18.33
2018-04-18T13:45:43.380Z,22.87
2018-04-18T13:50:47.816Z,20.80
2018-04-18T13:55:51.022Z,19.50
2018-04-18T14:00:55.817Z,21.75
2018-04-18T14:05:59.727Z,21.85
2018-04-18T14:11:03.548Z,18.98
2018-04-18T14:16:07.349Z,23.58
2018-04-18T14:21:11.083Z,21.60
2018-04-18T14:26:14.408Z,23.30
2018-04-18T14:31:18.441Z,21.23
2018-04-18T14:36:26.557Z,20.48
2018-04-18T14:41:29.876Z,19.08
2018-04-18T14:46:35.338Z,16.37
2018-04-18T14:51:41.109Z,18.77
2018-04-18T14:56:44.921Z,18.58
2018-04-18T15:01:48.072Z,17.60
2018-04-18T15:06:52.505Z,16.13
2018-04-18T15:11:55.739Z,19.98
2018-04-18T15:16:58.893Z,18.12
2018-04-18T15:22:03.938Z,15.70
2018-04-18T15:27:12.170Z,15.07
2018-04-18T15:32:15.442Z,19.15
2018-04-18T15:37:18.870Z,14.63
2018-04-18T15:42:29.220Z,12.48
2018-04-18T15:47:32.489Z,16.65
2018-04-18T15:52:36.525Z,13.07
2018-04-18T15:57:39.863Z,8.67
2018-04-18T16:02:43.907Z,13.27
2018-04-18T16:07:47.194Z,10.60
2018-04-18T16:12:52.023Z,14.32
2018-04-18T16:17:56.107Z,13.23
2018-04-18T16:22:59.424Z,10.90
2018-04-18T16:28:02.829Z,14.43
2018-04-18T16:33:07.913Z,13.27
2018-04-18T16:38:12.302Z,11.90
2018-04-18T16:43:15.540Z,8.83
2018-04-18T16:48:18.905Z,10.50
2018-04-18T16:53:23.273Z,9.40
2018-04-18T16:58:27.485Z,15.43
2018-04-18T17:03:30.786Z,10.17
2018-04-18T17:08:36.525Z,23.87
2018-04-18T17:13:39.755Z,21.48
2018-04-18T17:18:42.999Z,23.83
2018-04-18T17:23:46.329Z,28.42
2018-04-18T17:28:49.580Z,23.02
2018-04-18T17:33:53.583Z,20.88
2018-04-18T17:38:56.850Z,26.95
2018-04-18T17:44:00.971Z,28.08
2018-04-18T17:49:04.239Z,24.60
2018-04-18T17:54:08.053Z,26.15
2018-04-18T17:59:12.199Z,23.83
2018-04-18T18:04:15.929Z,26.75
2018-04-18T18:09:19.580Z,27.67
2018-04-18T18:14:23.609Z,28.23
2018-04-18T18:19:28.372Z,27.00
2018-04-18T18:24:31.641Z,21.23
2018-04-18T18:29:34.939Z,19.95
2018-04-18T18:34:45.676Z,21.73
2018-04-18T18:39:57.044Z,21.15
2018-04-18T18:45:03.105Z,19.93
2018-04-18T18:50:06.591Z,22.27
2018-04-18T18:55:09.615Z,23.10
2018-04-18T19:00:15.943Z,25.25
2018-04-18T19:05:19.338Z,20.93
2018-04-18T19:10:23.451Z,21.90
2018-04-18T19:15:26.779Z,20.20
2018-04-18T19:20:30.012Z,22.87
2018-04-18T19:25:33.402Z,21.95
2018-04-18T19:30:37.646Z,18.95
2018-04-18T19:35:41.717Z,17.98
2018-04-18T19:40:44.971Z,24.27
2018-04-18T19:45:48.333Z,21.87
2018-04-18T19:50:51.989Z,22.93
2018-04-18T19:55:56.253Z,21.80
2018-04-18T20:00:59.610Z,22.57
2018-04-18T20:06:02.986Z,24.20
2018-04-18T20:16:26.392Z,26.50
2018-04-18T20:21:30.542Z,25.15
2018-04-18T20:26:33.827Z,25.95
2018-04-18T20:37:11.125Z,24.27
2018-04-18T20:42:14.341Z,19.93
2018-04-18T20:47:17.642Z,17.20
2018-04-18T20:52:21.562Z,18.62
2018-04-18T20:57:26.735Z,19.12
2018-04-18T21:02:30.571Z,21.05
2018-04-18T21:07:35.061Z,21.17
2018-04-18T21:12:38.329Z,17.73
2018-04-18T21:17:41.544Z,19.33
2018-04-18T21:22:44.790Z,21.17
2018-04-18T21:27:48.054Z,19.20
2018-04-18T21:32:51.329Z,21.35
2018-04-18T21:37:55.490Z,19.50
2018-04-18T21:42:58.798Z,18.73
2018-04-18T21:48:02.437Z,16.27
2018-04-18T21:53:05.689Z,20.00
2018-04-18T21:58:09.642Z,14.20
2018-04-18T22:03:12.677Z,14.07
2018-04-18T22:08:15.931Z,13.40
2018-04-18T22:13:20.713Z,16.93
2018-04-18T22:18:24.388Z,17.93
2018-04-18T22:23:28.372Z,15.85
2018-04-18T22:28:31.597Z,13.73
2018-04-18T22:33:34.884Z,15.13
2018-04-18T22:38:38.009Z,15.53
2018-04-18T22:43:41.230Z,17.67
2018-04-18T22:48:44.543Z,15.55
2018-04-18T22:53:47.692Z,15.40
2018-04-18T22:58:51.015Z,19.65
2018-04-18T23:03:54.256Z,20.67
2018-04-18T23:08:57.556Z,17.93
2018-04-18T23:14:00.814Z,20.80
2018-04-18T23:19:04.123Z,15.43
2018-04-18T23:24:07.311Z,20.60
2018-04-18T23:29:11.252Z,16.35
2018-04-18T23:34:14.539Z,14.18
2018-04-18T23:39:18.018Z,14.87
2018-04-18T23:44:21.504Z,12.80
2018-04-18T23:49:25.836Z,15.02
2018-04-18T23:54:28.828Z,18.60
2018-04-18T23:59:32.151Z,17.10
